Terminal Aerodrome Forecast
Issued by NWS Binghamton, NY

Home | Current Version | Previous Version | Text Only | Print | Product List | Glossary On
Versions: 1 2 3 4 5 6 7 8 9 10 11 12 13 14 15 16 17
678
FTUS41 KBGM 010554
TAFSYR
TAF
KSYR 010554Z 0106/0206 16008KT P6SM -RA SCT025 OVC040
      TEMPO 0111/0115 3SM RA BR OVC025
     FM011700 15012G22KT P6SM -SHRA OVC025
     FM020000 14008KT P6SM SCT015 OVC025=

USA.gov is the U.S. government's official web portal to all federal, state and local government web resources and services.